Bryce Canyon Airport
KBCE : now visible

Airfield :











YOU CAN JOIN US ON...

 
LOGIN :

Register | Disclaimer

   EN    FR    IT 

 









Legend :    VFR   Marginal VFR   IFR   Intensive IFR   Very Intensive IFR
Visi :
Ceiling :
>= 8 km
>= 3000ft
5 to 8 km
1000 to 3000 ft
1500m to 5 km
500 to 1000 ft
800 to 1500m
200 to 500 ft
< 800m
< 200 ft
Symbols :   Thunderstorms  Fog  Heavy snow  Heavy precipitations  Wind > 20 kt







- Airport Elevation : 7590 ft


KBCE - Bryce Canyon

CURRENT METAR :
  • 220553Z AUTO 30006KT 10SM BKN100 OVC120 00/M03 A2968 RMK AO2 SLP994 60000 T00001028 10044 21006 50003

EXPIRED METARs :
  • 220453Z AUTO 28005KT 10SM BKN110 00/M02 A2969 RMK AO2 SLP994 T00001022
  • 220353Z AUTO 27007KT 10SM CLR 00/M03 A2967 RMK AO2 SLP995 T00001028

TAF KBCE
Valid from the 22 at 06:00 until the 23 at 06:00 UTC


220529Z 2206/2306 29008KT P6SM BKN060
FM221600 16008KT P6SM VCSH BKN040
FM230100 06006KT P6SM BKN040
KZLC FIR / North America



MET'MAP, your aeronautical weather chart ! - Copyright ORBIFLY December 2007 - Disclaimer

ORBIFLY MET'MAP TEAM :

Programming & Development : Alexandra Zaïnal
Concept & Development : Baudouin d'Aumeries
Co-Development & Prog : Marc-Olivier Méhu
Technical & hardware support : Manuel Goepfert

Contact : metmap@orbifly.com




SOURCES & CREDITS :

   NOAA       Earth
Advisory